createdAt,value
2023-03-18T00:00:35.325Z,68.60
2023-03-18T00:03:03.334Z,68.00
2023-03-18T00:05:31.416Z,67.20
2023-03-18T00:07:59.278Z,66.80
2023-03-18T00:10:26.706Z,67.40
2023-03-18T00:12:53.949Z,67.50
2023-03-18T00:15:21.698Z,68.10
2023-03-18T00:17:49.457Z,67.00
2023-03-18T00:20:18.674Z,67.20
2023-03-18T00:22:47.021Z,67.50
2023-03-18T00:25:15.681Z,67.60
2023-03-18T00:27:43.498Z,68.40
2023-03-18T00:30:13.033Z,68.90
2023-03-18T00:32:41.866Z,68.50
2023-03-18T00:35:09.878Z,69.00
2023-03-18T00:37:37.162Z,69.20
2023-03-18T00:40:10.139Z,69.00
2023-03-18T00:42:40.322Z,69.30
2023-03-18T00:45:11.252Z,69.30
2023-03-18T00:47:38.716Z,69.80
2023-03-18T00:50:10.570Z,69.10
2023-03-18T00:52:38.337Z,69.90
2023-03-18T00:55:07.108Z,69.30
2023-03-18T00:57:35.570Z,69.30
2023-03-18T01:00:07.192Z,69.50
2023-03-18T01:02:35.123Z,68.50
2023-03-18T01:05:04.068Z,69.20
2023-03-18T01:07:31.322Z,68.70
2023-03-18T01:09:58.605Z,68.40
2023-03-18T01:12:25.926Z,68.40
2023-03-18T01:14:53.216Z,68.40
2023-03-18T01:17:21.169Z,68.70
2023-03-18T01:19:50.387Z,68.10
2023-03-18T01:22:18.837Z,69.20
2023-03-18T01:24:49.906Z,68.30
2023-03-18T01:27:19.943Z,69.00
2023-03-18T01:29:47.938Z,68.90
2023-03-18T01:32:22.309Z,69.10
2023-03-18T01:34:50.113Z,69.20
2023-03-18T01:37:17.345Z,69.40
2023-03-18T01:39:47.919Z,70.80
2023-03-18T01:42:22.633Z,69.90
2023-03-18T01:44:51.152Z,71.00
2023-03-18T01:47:18.829Z,70.80
2023-03-18T01:49:54.011Z,71.00
2023-03-18T01:52:25.442Z,71.10
2023-03-18T01:55:03.686Z,71.20
2023-03-18T01:57:33.888Z,72.30
2023-03-18T02:00:02.174Z,71.10
2023-03-18T02:02:30.947Z,71.00
2023-03-18T02:05:04.066Z,71.10
2023-03-18T02:07:34.330Z,71.10
2023-03-18T02:10:13.555Z,71.80
2023-03-18T02:12:45.092Z,71.80
2023-03-18T02:15:19.914Z,71.80
2023-03-18T02:18:06.309Z,71.90
2023-03-18T02:20:59.648Z,72.30
2023-03-18T02:23:49.513Z,72.20
2023-03-18T02:26:27.737Z,72.40
2023-03-18T02:28:58.359Z,72.40
2023-03-18T02:31:28.776Z,72.40
2023-03-18T02:33:57.204Z,72.40
2023-03-18T02:36:30.310Z,72.60
2023-03-18T02:39:00.530Z,73.20
2023-03-18T02:41:32.056Z,73.40
2023-03-18T02:44:00.986Z,73.10
2023-03-18T02:47:13.404Z,73.00
2023-03-18T02:49:41.650Z,73.50
2023-03-18T02:52:10.133Z,73.60
2023-03-18T02:54:37.678Z,73.70
2023-03-18T02:57:05.008Z,73.90
2023-03-18T02:59:33.183Z,74.00
2023-03-18T03:02:02.475Z,74.40
2023-03-18T03:04:29.948Z,73.90
2023-03-18T03:06:58.287Z,73.70
2023-03-18T03:09:36.799Z,74.10
2023-03-18T03:12:07.006Z,74.60
2023-03-18T03:14:39.473Z,74.20
2023-03-18T03:17:07.665Z,74.90
2023-03-18T03:19:35.250Z,74.40
2023-03-18T03:22:04.076Z,74.30
2023-03-18T03:24:32.214Z,74.70
2023-03-18T03:26:59.676Z,74.70
2023-03-18T03:29:27.516Z,75.30
2023-03-18T03:31:54.773Z,75.70
2023-03-18T03:34:21.980Z,75.40
2023-03-18T03:36:49.222Z,75.10
2023-03-18T03:39:16.502Z,75.10
2023-03-18T03:41:43.719Z,75.60
2023-03-18T03:44:12.329Z,75.70
2023-03-18T03:46:39.652Z,75.60
2023-03-18T03:49:06.939Z,76.30
2023-03-18T03:51:34.365Z,76.60
2023-03-18T03:54:02.167Z,76.40
2023-03-18T03:56:31.622Z,76.80
2023-03-18T03:59:00.416Z,76.70
2023-03-18T04:01:41.432Z,76.80
2023-03-18T04:04:08.725Z,77.30
2023-03-18T04:06:36.700Z,77.30
2023-03-18T04:09:04.891Z,77.40
2023-03-18T04:11:33.554Z,77.60
2023-03-18T04:14:00.890Z,77.30
2023-03-18T04:16:28.771Z,77.40
2023-03-18T04:18:56.870Z,78.10
2023-03-18T04:21:24.886Z,77.50
2023-03-18T04:23:55.021Z,77.60
2023-03-18T04:26:22.986Z,77.80
2023-03-18T04:28:52.411Z,78.20
2023-03-18T04:31:19.778Z,78.10
2023-03-18T04:33:47.842Z,78.50
2023-03-18T04:36:16.757Z,78.70
2023-03-18T04:38:44.738Z,79.90
2023-03-18T04:41:12.093Z,80.30
2023-03-18T04:43:39.998Z,80.30
2023-03-18T04:46:09.228Z,80.40
2023-03-18T04:48:37.943Z,80.00
2023-03-18T04:51:09.394Z,80.20
2023-03-18T04:53:37.946Z,80.70
2023-03-18T04:56:06.080Z,80.70
2023-03-18T04:58:48.246Z,81.20
2023-03-18T05:01:20.582Z,81.30
2023-03-18T05:03:48.683Z,82.00
2023-03-18T05:06:30.395Z,82.30
2023-03-18T05:09:05.694Z,82.90
2023-03-18T05:11:35.264Z,83.20
2023-03-18T05:14:22.767Z,82.70
2023-03-18T05:16:51.140Z,82.80
2023-03-18T05:19:18.447Z,83.00
2023-03-18T05:22:02.116Z,83.30
2023-03-18T05:24:30.416Z,83.30
2023-03-18T05:26:57.720Z,84.10
2023-03-18T05:29:31.548Z,82.90
2023-03-18T05:32:19.708Z,82.00
2023-03-18T05:34:52.987Z,83.10
2023-03-18T05:37:21.092Z,82.40
2023-03-18T05:39:58.174Z,82.10
2023-03-18T05:42:26.031Z,82.50
2023-03-18T05:44:54.911Z,82.30
2023-03-18T05:47:24.003Z,82.40
2023-03-18T05:50:12.074Z,82.40
2023-03-18T05:52:39.481Z,83.10
2023-03-18T05:55:15.375Z,82.00
2023-03-18T05:57:45.566Z,82.10
2023-03-18T06:00:13.643Z,82.30
2023-03-18T06:02:45.326Z,82.00
2023-03-18T06:05:15.389Z,81.70
2023-03-18T06:07:43.260Z,81.20
2023-03-18T06:10:12.688Z,81.50
2023-03-18T06:12:41.802Z,79.70
2023-03-18T06:15:11.261Z,80.60
2023-03-18T06:17:39.739Z,80.50
2023-03-18T06:20:11.743Z,79.40
2023-03-18T06:22:39.535Z,77.90
2023-03-18T06:25:08.373Z,77.60
2023-03-18T06:27:38.660Z,77.20
2023-03-18T06:30:07.235Z,77.30
2023-03-18T06:32:37.091Z,77.40
2023-03-18T06:35:05.457Z,76.30
2023-03-18T06:37:32.781Z,77.40
2023-03-18T06:40:01.089Z,76.40
2023-03-18T06:42:28.514Z,76.00
2023-03-18T06:45:02.840Z,76.90
2023-03-18T06:47:45.360Z,75.30
2023-03-18T06:50:14.012Z,76.20
2023-03-18T06:52:42.806Z,76.50
2023-03-18T06:55:13.477Z,76.10
2023-03-18T06:57:43.665Z,76.50
2023-03-18T07:00:13.492Z,76.10
2023-03-18T07:02:42.137Z,76.10
2023-03-18T07:05:12.933Z,76.90
2023-03-18T07:07:42.313Z,75.70
2023-03-18T07:10:18.086Z,75.40
2023-03-18T07:12:45.558Z,75.20
2023-03-18T07:15:13.053Z,75.70
2023-03-18T07:17:40.594Z,76.30
2023-03-18T07:20:09.345Z,76.40
2023-03-18T07:22:37.599Z,75.20
2023-03-18T07:25:05.843Z,75.80
2023-03-18T07:27:33.623Z,75.70
2023-03-18T07:30:02.744Z,75.00
2023-03-18T07:32:32.696Z,75.70
2023-03-18T07:35:00.062Z,74.70
2023-03-18T07:37:27.782Z,72.00
2023-03-18T07:39:55.425Z,73.40
2023-03-18T07:42:22.819Z,73.00
2023-03-18T07:44:51.259Z,72.90
2023-03-18T07:47:20.965Z,72.70
2023-03-18T07:49:48.289Z,70.90
2023-03-18T07:52:15.564Z,71.10
2023-03-18T07:54:43.026Z,71.20
2023-03-18T07:57:11.264Z,71.90
2023-03-18T07:59:39.142Z,72.00
2023-03-18T08:02:08.890Z,71.00
2023-03-18T08:04:36.694Z,71.80
2023-03-18T08:07:03.834Z,70.90
2023-03-18T08:09:31.035Z,70.60
2023-03-18T08:11:58.409Z,71.20
2023-03-18T08:14:25.761Z,70.60
2023-03-18T08:16:53.016Z,71.60
2023-03-18T08:19:21.666Z,71.50
2023-03-18T08:21:49.383Z,70.20
2023-03-18T08:24:17.543Z,71.40
2023-03-18T08:26:45.402Z,70.20
2023-03-18T08:29:12.648Z,71.30
2023-03-18T08:31:39.886Z,70.80
2023-03-18T08:34:07.180Z,70.60
2023-03-18T08:36:35.352Z,69.40
2023-03-18T08:39:03.180Z,69.10
2023-03-18T08:41:30.367Z,67.10
2023-03-18T08:43:57.550Z,67.10
2023-03-18T08:46:25.390Z,68.30
2023-03-18T08:48:54.606Z,65.50
2023-03-18T08:51:23.213Z,64.90
2023-03-18T08:53:51.018Z,65.90
2023-03-18T08:56:18.346Z,65.60
2023-03-18T08:58:46.296Z,67.10
2023-03-18T09:01:13.597Z,65.20
2023-03-18T09:03:41.358Z,66.80
2023-03-18T09:06:08.673Z,65.70
2023-03-18T09:08:36.015Z,62.00
2023-03-18T09:11:03.412Z,64.00
2023-03-18T09:13:30.551Z,65.00
2023-03-18T09:15:58.290Z,66.00
2023-03-18T09:18:25.807Z,65.70
2023-03-18T09:20:53.281Z,64.50
2023-03-18T09:23:21.051Z,66.50
2023-03-18T09:25:50.502Z,67.60
2023-03-18T09:28:18.129Z,65.60
2023-03-18T09:30:45.433Z,63.80
2023-03-18T09:33:14.196Z,65.10
2023-03-18T09:35:43.101Z,64.30
2023-03-18T09:38:18.056Z,63.00
2023-03-18T09:40:56.264Z,61.50
2023-03-18T09:43:47.144Z,64.10
2023-03-18T09:46:45.090Z,64.10
2023-03-18T09:49:23.446Z,62.00
2023-03-18T09:52:01.834Z,62.80
2023-03-18T09:54:49.355Z,61.60
2023-03-18T09:57:24.201Z,64.10
2023-03-18T09:59:55.750Z,63.50
2023-03-18T10:02:36.696Z,62.80
2023-03-18T10:05:12.817Z,60.20
2023-03-18T10:07:43.096Z,62.80
2023-03-18T10:10:24.675Z,62.30
2023-03-18T10:13:10.425Z,61.20
2023-03-18T10:15:42.898Z,61.40
2023-03-18T10:18:26.638Z,59.60
2023-03-18T10:21:12.634Z,60.10
2023-03-18T10:24:17.157Z,59.00
2023-03-18T10:26:50.393Z,58.40
2023-03-18T10:29:47.306Z,60.50
2023-03-18T10:32:48.613Z,61.20
2023-03-18T10:35:45.290Z,61.20
2023-03-18T10:38:18.668Z,63.20
2023-03-18T10:40:48.515Z,58.40
2023-03-18T10:43:22.755Z,61.70
2023-03-18T10:45:58.758Z,59.80
2023-03-18T10:48:40.808Z,58.60
2023-03-18T10:51:21.940Z,59.40
2023-03-18T10:53:57.088Z,58.40
2023-03-18T10:56:24.538Z,62.80
2023-03-18T10:58:53.000Z,60.50
2023-03-18T11:01:25.424Z,57.50
2023-03-18T11:04:07.197Z,56.90
2023-03-18T11:06:57.949Z,57.80
2023-03-18T11:09:39.686Z,58.80
2023-03-18T11:12:19.409Z,58.40
2023-03-18T11:14:51.235Z,58.40
2023-03-18T11:17:23.096Z,57.20
2023-03-18T11:20:09.225Z,57.80
2023-03-18T11:22:37.690Z,57.30
2023-03-18T11:25:20.723Z,56.50
2023-03-18T11:27:57.641Z,57.30
2023-03-18T11:30:34.863Z,58.90
2023-03-18T11:33:12.039Z,56.70
2023-03-18T11:35:46.386Z,51.40
2023-03-18T11:38:31.323Z,51.10
2023-03-18T11:41:17.073Z,51.40
2023-03-18T11:44:16.823Z,50.10
2023-03-18T11:46:53.647Z,51.30
2023-03-18T11:49:25.506Z,47.30
2023-03-18T11:51:56.406Z,50.30
2023-03-18T11:54:54.051Z,49.70
2023-03-18T11:57:38.376Z,47.30
2023-03-18T12:00:27.517Z,49.70
2023-03-18T12:03:30.012Z,49.10
2023-03-18T12:06:16.597Z,49.40
2023-03-18T12:09:03.561Z,48.30
2023-03-18T12:11:55.351Z,49.10
2023-03-18T12:15:02.284Z,49.20
2023-03-18T12:17:50.660Z,47.20
2023-03-18T12:20:44.501Z,48.20
2023-03-18T12:23:21.474Z,47.40
2023-03-18T12:26:01.056Z,49.60
2023-03-18T12:28:41.878Z,47.30
2023-03-18T12:31:27.582Z,49.10
2023-03-18T12:33:58.983Z,48.80
2023-03-18T12:36:35.902Z,51.10
2023-03-18T12:39:24.271Z,48.40
2023-03-18T12:41:57.385Z,49.70
2023-03-18T12:44:42.852Z,48.50
2023-03-18T12:47:16.323Z,48.20
2023-03-18T12:49:52.873Z,46.40
2023-03-18T12:52:46.405Z,46.90
2023-03-18T12:55:34.266Z,47.50
2023-03-18T12:58:11.300Z,45.10
2023-03-18T13:01:10.742Z,46.50
2023-03-18T13:03:42.003Z,45.60
2023-03-18T13:06:12.568Z,46.60
2023-03-18T13:09:05.223Z,45.80
2023-03-18T13:11:47.625Z,46.50
2023-03-18T13:14:21.982Z,47.00
2023-03-18T13:16:52.336Z,45.40
2023-03-18T13:19:19.732Z,45.10
2023-03-18T13:22:10.187Z,46.00
2023-03-18T13:24:56.800Z,45.70
2023-03-18T13:27:49.677Z,45.10
2023-03-18T13:30:35.700Z,44.00
2023-03-18T13:33:32.431Z,45.40
2023-03-18T13:36:17.589Z,45.20
2023-03-18T13:39:26.269Z,46.80
2023-03-18T13:42:12.369Z,43.70
2023-03-18T13:44:57.678Z,45.80
2023-03-18T13:47:30.578Z,43.80
2023-03-18T13:50:05.155Z,45.30
2023-03-18T13:52:43.115Z,44.00
2023-03-18T13:55:26.179Z,44.50
2023-03-18T13:58:22.993Z,44.30
2023-03-18T14:00:59.769Z,42.50
2023-03-18T14:03:30.021Z,44.10
2023-03-18T14:06:15.681Z,45.10
2023-03-18T14:08:43.038Z,45.90
2023-03-18T14:11:27.111Z,46.70
2023-03-18T14:13:58.879Z,49.20
2023-03-18T14:16:37.926Z,50.00
2023-03-18T14:19:22.265Z,52.60
2023-03-18T14:22:07.477Z,50.60
2023-03-18T14:24:35.234Z,46.00
2023-03-18T14:27:05.324Z,46.50
2023-03-18T14:29:39.867Z,49.00
2023-03-18T14:32:37.076Z,51.60
2023-03-18T14:35:28.971Z,52.00
2023-03-18T14:38:21.158Z,51.90
2023-03-18T14:40:55.378Z,51.60
2023-03-18T14:43:30.714Z,50.70
2023-03-18T14:46:02.188Z,52.60
2023-03-18T14:48:33.178Z,51.30
2023-03-18T14:51:10.696Z,51.00
2023-03-18T14:53:56.827Z,51.70
2023-03-18T14:56:29.452Z,52.70
2023-03-18T14:58:57.212Z,53.60
2023-03-18T15:01:33.120Z,51.40
2023-03-18T15:04:02.591Z,53.90
2023-03-18T15:06:31.076Z,52.90
2023-03-18T15:09:09.818Z,53.20
2023-03-18T15:11:44.567Z,52.40
2023-03-18T15:14:26.615Z,52.90
2023-03-18T15:17:00.263Z,52.10
2023-03-18T15:19:32.750Z,52.50
2023-03-18T15:22:06.012Z,52.70
2023-03-18T15:24:33.969Z,51.50
2023-03-18T15:27:08.648Z,52.90
2023-03-18T15:30:05.427Z,52.60
2023-03-18T15:32:45.477Z,52.10
2023-03-18T15:35:25.142Z,53.20
2023-03-18T15:38:17.067Z,54.10
2023-03-18T15:40:58.177Z,52.90
2023-03-18T15:43:31.372Z,53.30
2023-03-18T15:46:01.420Z,53.40
2023-03-18T15:48:36.819Z,52.80
2023-03-18T15:51:10.997Z,53.70
2023-03-18T15:53:51.370Z,55.60
2023-03-18T15:56:31.611Z,54.30
2023-03-18T15:59:16.121Z,55.50
2023-03-18T16:01:44.254Z,54.60
2023-03-18T16:04:16.864Z,54.60
2023-03-18T16:06:45.187Z,54.00
2023-03-18T16:09:34.804Z,55.70
2023-03-18T16:12:17.520Z,56.10
2023-03-18T16:14:46.898Z,56.30
2023-03-18T16:17:17.758Z,56.70
2023-03-18T16:19:47.785Z,55.90
2023-03-18T16:22:15.557Z,57.00
2023-03-18T16:24:44.102Z,57.50
2023-03-18T16:27:27.919Z,57.00
2023-03-18T16:29:55.773Z,57.80
2023-03-18T16:32:23.385Z,56.10
2023-03-18T16:34:51.409Z,56.40
2023-03-18T16:37:25.964Z,56.40
2023-03-18T16:39:56.073Z,56.40
2023-03-18T16:42:25.200Z,56.10
2023-03-18T16:44:53.052Z,56.40
2023-03-18T16:47:25.448Z,56.70
2023-03-18T16:49:53.067Z,56.60
2023-03-18T16:52:20.285Z,56.20
2023-03-18T16:54:47.483Z,57.10
2023-03-18T16:57:20.356Z,55.40
2023-03-18T16:59:55.232Z,55.90
2023-03-18T17:02:40.743Z,56.50
2023-03-18T17:05:17.701Z,56.90
2023-03-18T17:07:45.463Z,57.30
2023-03-18T17:10:15.524Z,56.90
2023-03-18T17:13:02.364Z,57.50
2023-03-18T17:15:32.572Z,57.30
2023-03-18T17:18:00.652Z,58.20
2023-03-18T17:20:31.581Z,59.20
2023-03-18T17:23:00.241Z,58.90
2023-03-18T17:25:30.791Z,58.80
2023-03-18T17:28:02.193Z,61.10
2023-03-18T17:30:37.527Z,60.50
2023-03-18T17:33:22.845Z,61.00
2023-03-18T17:35:50.827Z,60.20
2023-03-18T17:38:18.857Z,61.20
2023-03-18T17:40:50.068Z,61.00
2023-03-18T17:43:28.751Z,61.40
2023-03-18T17:45:57.775Z,60.40
2023-03-18T17:48:27.966Z,61.20
2023-03-18T17:51:07.395Z,63.20
2023-03-18T17:53:40.730Z,61.00
2023-03-18T17:56:12.010Z,61.60
2023-03-18T17:58:41.837Z,62.40
2023-03-18T18:01:17.547Z,61.70
2023-03-18T18:03:45.697Z,64.30
2023-03-18T18:06:21.764Z,62.70
2023-03-18T18:08:50.351Z,62.80
2023-03-18T18:11:19.556Z,62.80
2023-03-18T18:13:47.626Z,62.90
2023-03-18T18:16:15.080Z,63.40
2023-03-18T18:18:43.115Z,63.30
2023-03-18T18:21:23.712Z,63.70
2023-03-18T18:23:51.643Z,64.20
2023-03-18T18:26:21.554Z,63.50
2023-03-18T18:28:51.462Z,63.50
2023-03-18T18:31:21.281Z,64.00
2023-03-18T18:33:50.649Z,63.70
2023-03-18T18:36:18.431Z,64.00
2023-03-18T18:38:46.098Z,64.30
2023-03-18T18:41:13.432Z,65.20
2023-03-18T18:43:40.854Z,66.00
2023-03-18T18:46:15.395Z,65.00
2023-03-18T18:48:49.755Z,64.90
2023-03-18T18:51:21.551Z,64.90
2023-03-18T18:53:50.950Z,64.90
2023-03-18T18:56:34.298Z,65.10
2023-03-18T18:59:07.979Z,64.70
2023-03-18T19:01:35.282Z,65.50
2023-03-18T19:04:03.162Z,65.40
2023-03-18T19:06:32.070Z,66.10
2023-03-18T19:09:01.856Z,66.10
2023-03-18T19:11:30.055Z,65.80
2023-03-18T19:14:27.937Z,67.00
2023-03-18T19:16:58.762Z,67.30
2023-03-18T19:19:29.338Z,66.40
2023-03-18T19:21:57.888Z,66.40
2023-03-18T19:24:30.652Z,66.40
2023-03-18T19:27:03.385Z,67.20
2023-03-18T19:29:35.502Z,66.80
2023-03-18T19:32:02.845Z,66.50
2023-03-18T19:34:32.583Z,66.80
2023-03-18T19:37:02.841Z,66.80
2023-03-18T19:39:30.869Z,67.50
2023-03-18T19:41:58.140Z,67.90
2023-03-18T19:44:26.731Z,67.80
2023-03-18T19:46:56.442Z,67.40
2023-03-18T19:49:39.522Z,68.10
2023-03-18T19:52:26.723Z,67.70
2023-03-18T19:54:55.235Z,67.50
2023-03-18T19:57:28.671Z,68.30
2023-03-18T19:59:58.521Z,68.10
2023-03-18T20:02:27.127Z,68.10
2023-03-18T20:04:57.727Z,68.50
2023-03-18T20:07:27.932Z,68.30
2023-03-18T20:09:56.399Z,68.70
2023-03-18T20:12:37.937Z,69.00
2023-03-18T20:15:11.084Z,69.60
2023-03-18T20:17:40.533Z,70.00
2023-03-18T20:20:13.411Z,69.30
2023-03-18T20:23:02.277Z,69.40
2023-03-18T20:25:36.241Z,69.90
2023-03-18T20:28:05.168Z,69.10
2023-03-18T20:30:38.065Z,70.00
2023-03-18T20:33:06.878Z,69.80
2023-03-18T20:35:37.521Z,69.80
2023-03-18T20:38:27.078Z,70.00
2023-03-18T20:40:54.801Z,71.40
2023-03-18T20:43:24.236Z,70.90
2023-03-18T20:45:52.283Z,71.20
2023-03-18T20:48:21.027Z,70.80
2023-03-18T20:50:49.316Z,71.00
2023-03-18T20:53:23.540Z,70.90
2023-03-18T20:55:51.676Z,69.90
2023-03-18T20:58:24.401Z,70.50
2023-03-18T21:00:52.648Z,69.90
2023-03-18T21:03:29.509Z,70.20
2023-03-18T21:05:59.002Z,70.90
2023-03-18T21:08:27.894Z,71.10
2023-03-18T21:10:58.095Z,71.20
2023-03-18T21:13:39.299Z,70.70
2023-03-18T21:16:12.049Z,70.70
2023-03-18T21:18:41.865Z,70.60
2023-03-18T21:21:44.508Z,71.00
2023-03-18T21:24:27.601Z,71.40
2023-03-18T21:27:04.373Z,70.70
2023-03-18T21:29:32.790Z,70.70
2023-03-18T21:32:00.583Z,70.80
2023-03-18T21:34:27.882Z,70.80
2023-03-18T21:36:55.088Z,70.60
2023-03-18T21:39:22.776Z,70.80
2023-03-18T21:41:49.965Z,71.60
2023-03-18T21:44:17.147Z,71.80
2023-03-18T21:46:44.506Z,72.20
2023-03-18T21:49:11.856Z,72.30
2023-03-18T21:51:40.447Z,73.00
2023-03-18T21:54:26.443Z,73.40
2023-03-18T21:56:53.728Z,73.40
2023-03-18T21:59:21.269Z,73.60
2023-03-18T22:01:48.552Z,73.80
2023-03-18T22:04:15.838Z,74.50
2023-03-18T22:06:43.073Z,75.00
2023-03-18T22:09:10.286Z,75.70
2023-03-18T22:11:37.584Z,75.80
2023-03-18T22:14:04.709Z,76.30
2023-03-18T22:16:32.570Z,76.90
2023-03-18T22:18:59.743Z,77.50
2023-03-18T22:21:28.554Z,78.30
2023-03-18T22:23:58.379Z,78.80
2023-03-18T22:26:26.116Z,79.70
2023-03-18T22:28:53.427Z,80.40
2023-03-18T22:31:26.331Z,80.80
2023-03-18T22:33:54.369Z,80.90
2023-03-18T22:36:23.871Z,81.50
2023-03-18T22:38:51.153Z,81.90
2023-03-18T22:41:24.492Z,82.10
2023-03-18T22:43:51.879Z,82.70
2023-03-18T22:46:19.160Z,83.10
2023-03-18T22:48:46.374Z,83.10
2023-03-18T22:51:32.157Z,83.40
2023-03-18T22:53:59.432Z,84.00
2023-03-18T22:56:26.683Z,85.10
2023-03-18T22:58:54.067Z,84.40
2023-03-18T23:01:27.202Z,85.10
2023-03-18T23:03:54.462Z,85.50
2023-03-18T23:06:26.201Z,86.00
2023-03-18T23:08:53.791Z,86.20
2023-03-18T23:11:21.063Z,86.60
2023-03-18T23:13:50.291Z,86.40
2023-03-18T23:16:23.968Z,86.50
2023-03-18T23:18:52.524Z,87.00
2023-03-18T23:21:25.805Z,87.30
2023-03-18T23:23:53.803Z,87.60
2023-03-18T23:26:21.979Z,87.70
2023-03-18T23:28:49.527Z,87.70
2023-03-18T23:31:17.787Z,87.90
2023-03-18T23:33:45.668Z,88.10
2023-03-18T23:36:13.176Z,88.20
2023-03-18T23:38:40.882Z,88.30
2023-03-18T23:41:08.661Z,88.60
2023-03-18T23:43:37.235Z,88.70
2023-03-18T23:46:04.682Z,89.00
2023-03-18T23:48:32.128Z,89.20
2023-03-18T23:50:59.523Z,89.10
2023-03-18T23:53:27.500Z,89.50
2023-03-18T23:55:54.693Z,89.80
2023-03-18T23:58:21.917Z,89.90
